Terminal Aerodrome Forecast
Issued by NWS

Home | Current Version | Previous Version | Text Only | Print | Product List | Glossary On
Versions: 1 2 3 4 5 6 7 8 9 10 11 12 13 14 15 16 17 18 19 20 21 22 23 24 25
247
FTPA31 PHFO 051200 AAA
TAFHNY
TAF AMD
PHNY 051200Z 0512/0612 VRB05KT P6SM -SHRA SCT015 BKN035 OVC100
      TEMPO 0512/0514 BKN015
     FM052100 25007KT P6SM SCT015 BKN025
     FM060500 05005KT P6SM SCT025 SCT050=

USA.gov is the U.S. government's official web portal to all federal, state and local government web resources and services.